Pink Gin — MAYP5 — position and weather

sailwx.info

Track history (hours):
 
Tides and Currents Weather Stations Pressure Air Temp Water Temp Dewpoint Dewpoint Depression Visibility Wind Speed Wind Dir Waves Ship Positions

Pink Gin

Last reported at 2017-Nov-24 17:42 UTC. Time now 2017-Dec-14 06:31 UTC.
Position N 28°25' W 016°13'.
Warning: this ship's position is 19 days out of date.

Length 55 m; draft 7 m.

Type: Pleasure craft. MMSI: 232007762.

Date/timePositionNaut miles runAvg speedWind from/ knotsBaromVisibWave heightAir tempDewpointWater temp
2017-Nov-24 17:42N 28°25' W 016°13'0 1.5
2017-Nov-24 17:30N 28°25' W 016°13'3 5.3
2017-Nov-24 16:56N 28°27' W 016°15'1 1.3
2017-Nov-24 16:25N 28°28' W 016°15'0 0.0
2017-Nov-24 15:57N 28°28' W 016°15'0 0.0
2017-Nov-24 15:27N 28°28' W 016°15'0 0.0
2017-Nov-24 14:57N 28°28' W 016°15'0 0.0
2017-Nov-24 14:24N 28°28' W 016°15'1 0.0
2017-Nov-23 19:18N 28°27' W 016°15'711.4
2017-Nov-23 18:40N 28°30' W 016°07'313.8
2017-Nov-23 18:28N 28°31' W 016°04'613.9
2017-Nov-23 18:00N 28°34' W 015°58'1014.1
2017-Nov-23 17:19N 28°39' W 015°48'414.3
2017-Nov-23 17:00N 28°42' W 015°45'714.2
2017-Nov-23 16:30N 28°47' W 015°38'714.0
2017-Nov-23 16:00N 28°51' W 015°32'713.5
2017-Nov-23 15:30N 28°55' W 015°26'3913.5
2017-Nov-23 12:36N 29°19' W 014°50'113.6
2017-Nov-23 12:30N 29°20' W 014°49'713.8
2017-Nov-23 12:00N 29°24' W 014°43'713.9
2017-Nov-23 11:30N 29°29' W 014°37'714.0
2017-Nov-23 11:01N 29°33' W 014°31'813.7
2017-Nov-23 10:25N 29°38' W 014°23'613.7
2017-Nov-23 09:59N 29°42' W 014°18'713.7
2017-Nov-23 09:28N 29°47' W 014°12'713.7
2017-Nov-23 08:56N 29°51' W 014°05'614.0
2017-Nov-23 08:30N 29°55' W 014°00'713.8
2017-Nov-23 08:01N 29°60' W 013°54'713.6
2017-Nov-23 07:30N 30°04' W 013°48'713.5
2017-Nov-23 06:57N 30°09' W 013°42'613.8
2017-Nov-23 06:30N 30°13' W 013°36'714.1
2017-Nov-23 06:00N 30°17' W 013°30'6612.5
2017-Nov-23 00:41N 30°59' W 012°30'210.7
2017-Nov-23 00:31N 31°01' W 012°29'1310.7
2017-Nov-22 23:15N 31°10' W 012°17'311.2
2017-Nov-22 23:00N 31°12' W 012°15'611.4
2017-Nov-22 22:29N 31°16' W 012°09'  
2017-Nov-20 00:17N 38°55' E 001°27'0 0.0
2017-Nov-19 23:53N 38°55' E 001°27'0 0.0
2017-Nov-19 23:02N 38°55' E 001°27'0 0.0
2017-Nov-19 22:47N 38°55' E 001°27'0 0.0
2017-Nov-19 22:23N 38°55' E 001°27'0 0.0
2017-Nov-19 21:35N 38°55' E 001°27'0 0.0
2017-Nov-19 21:26N 38°55' E 001°27'0 0.0
2017-Nov-19 20:50N 38°55' E 001°27'0 0.0
2017-Nov-19 20:29N 38°55' E 001°27'0 0.0
2017-Nov-19 19:59N 38°55' E 001°27'0 0.0
2017-Nov-19 19:29N 38°55' E 001°27'0 0.0
2017-Nov-19 18:59N 38°55' E 001°27'0 0.0
2017-Nov-19 18:17N 38°55' E 001°27'0 0.0
2017-Nov-19 17:38N 38°55' E 001°27'0 0.0
2017-Nov-19 17:29N 38°55' E 001°27'0 0.0
2017-Nov-19 17:00N 38°55' E 001°27'0 0.0
2017-Nov-19 16:30N 38°55' E 001°27'0 0.0
2017-Nov-19 15:59N 38°55' E 001°27'0 0.0
2017-Nov-19 15:28N 38°55' E 001°27'1 1.8
2017-Nov-19 14:58N 38°54' E 001°27'510.3
2017-Nov-19 14:30N 38°56' E 001°33'713.4
2017-Nov-19 14:00N 38°60' E 001°40'713.3
2017-Nov-19 13:28N 39°04' E 001°47'2913.1
2017-Nov-19 11:15N 39°19' E 002°19'313.8
2017-Nov-19 11:00N 39°21' E 002°23'713.8
2017-Nov-19 10:30N 39°25' E 002°30'713.4
2017-Nov-19 10:00N 39°30' E 002°36'4 8.5
2017-Nov-19 09:30N 39°34' E 002°38'0 0.8
2017-Nov-19 08:58N 39°34' E 002°38'0 0.0
2017-Nov-19 08:28N 39°34' E 002°38'0 0.0
2017-Nov-19 07:58N 39°34' E 002°38'0 0.0
2017-Nov-19 07:28N 39°34' E 002°38'0 0.0
2017-Nov-19 06:58N 39°34' E 002°38'0 0.0
2017-Nov-19 06:28N 39°34' E 002°38'0 0.0
2017-Nov-19 05:58N 39°34' E 002°38'0 0.0
2017-Nov-19 05:28N 39°34' E 002°38'0 0.0
2017-Nov-19 04:58N 39°34' E 002°38'0 0.0
2017-Nov-19 04:28N 39°34' E 002°38'0 0.0
2017-Nov-19 03:58N 39°34' E 002°38'0 0.0
2017-Nov-19 03:28N 39°34' E 002°38'0 0.0
2017-Nov-19 02:58N 39°34' E 002°38'0 0.0
2017-Nov-19 02:28N 39°34' E 002°38'0 0.0
2017-Nov-19 01:58N 39°34' E 002°38'0 0.0
2017-Nov-19 01:28N 39°34' E 002°38'0 0.0
2017-Nov-19 00:58N 39°34' E 002°38'0 0.0
2017-Nov-19 00:28N 39°34' E 002°38'0 0.0
2017-Nov-18 23:58N 39°34' E 002°38'0 0.0
2017-Nov-18 23:28N 39°34' E 002°38'0 0.0
2017-Nov-18 22:58N 39°34' E 002°38'0 0.0
2017-Nov-18 22:28N 39°34' E 002°38'0 0.0
2017-Nov-18 21:58N 39°34' E 002°38'0 0.0
2017-Nov-18 21:28N 39°34' E 002°38'0 0.0
2017-Nov-18 20:58N 39°34' E 002°38'0 0.0
2017-Nov-18 20:28N 39°34' E 002°38'0 0.0
2017-Nov-18 19:58N 39°34' E 002°38'0 0.0
2017-Nov-18 19:25N 39°34' E 002°38'0 0.0
2017-Nov-18 18:58N 39°34' E 002°38'0 0.0
2017-Nov-18 18:28N 39°34' E 002°38'0 0.0
2017-Nov-18 17:58N 39°34' E 002°38'0 0.0
2017-Nov-18 17:28N 39°34' E 002°38'0 0.0
2017-Nov-18 16:58N 39°34' E 002°38'0 0.0
2017-Nov-18 16:28N 39°34' E 002°38'0 0.0
2017-Nov-18 15:58N 39°34' E 002°38'0 0.0
2017-Nov-18 15:25N 39°34' E 002°38'0 0.0
2017-Nov-18 15:00N 39°34' E 002°38'0 0.0
2017-Nov-18 14:30N 39°34' E 002°38'0 0.0
2017-Nov-18 14:00N 39°34' E 002°38'0 0.0
2017-Nov-18 13:30N 39°34' E 002°38'0 0.0
2017-Nov-18 13:00N 39°34' E 002°38'0 0.0
2017-Nov-18 12:30N 39°34' E 002°38'0 0.0
2017-Nov-18 12:00N 39°34' E 002°38'0 0.0
2017-Nov-18 11:30N 39°34' E 002°38'0 0.0
2017-Nov-18 11:00N 39°34' E 002°38'0 0.9
2017-Nov-18 10:30N 39°34' E 002°38'2 4.0
2017-Nov-18 10:00N 39°32' E 002°39'2 4.6
2017-Nov-18 09:30N 39°30' E 002°39'1 2.3
2017-Nov-18 09:00N 39°31' E 002°39'3 5.8
2017-Nov-18 08:28N 39°34' E 002°38'0 0.0
2017-Nov-18 07:55N 39°34' E 002°38'0 0.0
2017-Nov-18 07:28N 39°34' E 002°38'0 0.1
2017-Nov-18 06:58N 39°34' E 002°38'0 0.1
2017-Nov-18 06:28N 39°34' E 002°38'0 0.0
2017-Nov-18 05:58N 39°34' E 002°38'0 0.0
2017-Nov-18 05:28N 39°34' E 002°38'0 0.0
2017-Nov-18 04:58N 39°34' E 002°38'0 0.0
2017-Nov-18 04:28N 39°34' E 002°38'0 0.0
2017-Nov-18 03:58N 39°34' E 002°38'0 0.0
2017-Nov-18 03:28N 39°34' E 002°38'0 0.0
2017-Nov-18 02:58N 39°34' E 002°38'0 0.0
2017-Nov-18 02:28N 39°34' E 002°38'0 0.0
2017-Nov-18 01:58N 39°34' E 002°38'0 0.0
2017-Nov-18 01:28N 39°34' E 002°38'0 0.0
2017-Nov-18 00:58N 39°34' E 002°38'0 0.0
2017-Nov-18 00:28N 39°34' E 002°38'0 0.0
2017-Nov-17 23:58N 39°34' E 002°38'0 0.0
2017-Nov-17 23:28N 39°34' E 002°38'0 0.0
2017-Nov-17 22:58N 39°34' E 002°38'0 0.0
2017-Nov-17 22:28N 39°34' E 002°38'0 0.0
2017-Nov-17 21:58N 39°34' E 002°38'0 0.0
2017-Nov-17 21:28N 39°34' E 002°38'0 0.0
2017-Nov-17 20:58N 39°34' E 002°38'0 0.0
2017-Nov-17 20:28N 39°34' E 002°38'0 0.0
2017-Nov-17 19:58N 39°34' E 002°38'0 0.0
2017-Nov-17 19:28N 39°34' E 002°38'0 0.0
2017-Nov-17 18:58N 39°34' E 002°38'0 0.0
2017-Nov-17 18:28N 39°34' E 002°38'0 0.0
2017-Nov-17 17:58N 39°34' E 002°38'0 0.0
2017-Nov-17 17:28N 39°34' E 002°38'0 0.0
2017-Nov-17 16:58N 39°34' E 002°38'0 0.0
2017-Nov-17 16:28N 39°34' E 002°38'0 0.0
2017-Nov-17 15:58N 39°34' E 002°38'0 0.0
2017-Nov-17 15:28N 39°34' E 002°38'0 0.0
2017-Nov-17 14:55N 39°34' E 002°38'0 0.0
2017-Nov-17 14:28N 39°34' E 002°38'0 0.0
2017-Nov-17 13:58N 39°34' E 002°38'0 0.0
2017-Nov-17 13:28N 39°34' E 002°38'0 0.0
2017-Nov-17 12:58N 39°34' E 002°38'0 0.0
2017-Nov-17 12:28N 39°34' E 002°38'0 0.0
2017-Nov-17 11:58N 39°34' E 002°38'0 0.0
2017-Nov-17 11:28N 39°34' E 002°38'0 0.0
2017-Nov-17 10:58N 39°34' E 002°38'0 0.0
2017-Nov-17 10:28N 39°34' E 002°38'0 0.0
2017-Nov-17 09:58N 39°34' E 002°38'0 0.0
2017-Nov-17 09:28N 39°34' E 002°38'0 0.0
2017-Nov-17 08:58N 39°34' E 002°38'0 0.0
2017-Nov-17 08:28N 39°34' E 002°38'0 0.0
2017-Nov-17 07:58N 39°34' E 002°38'0 0.0
2017-Nov-17 07:28N 39°34' E 002°38'0 0.0
2017-Nov-17 06:58N 39°34' E 002°38'0 0.0
2017-Nov-17 06:28N 39°34' E 002°38'0 0.0
2017-Nov-17 05:58N 39°34' E 002°38'0 0.0
2017-Nov-17 05:25N 39°34' E 002°38'0 0.0
2017-Nov-17 04:58N 39°34' E 002°38'0 0.0
2017-Nov-17 04:28N 39°34' E 002°38'0 0.0
2017-Nov-17 03:58N 39°34' E 002°38'0 0.0
2017-Nov-17 03:28N 39°34' E 002°38'0 0.0
2017-Nov-17 02:58N 39°34' E 002°38'0 0.0
2017-Nov-17 02:28N 39°34' E 002°38'0 0.0
2017-Nov-17 01:58N 39°34' E 002°38'0 0.0
2017-Nov-17 01:28N 39°34' E 002°38'0 0.0
2017-Nov-17 00:58N 39°34' E 002°38'0 0.0
2017-Nov-17 00:28N 39°34' E 002°38'0 0.0
2017-Nov-16 23:58N 39°34' E 002°38'0 0.0
2017-Nov-16 23:28N 39°34' E 002°38'0 0.0
2017-Nov-16 22:58N 39°34' E 002°38'0 0.0
2017-Nov-16 22:28N 39°34' E 002°38'0 0.0
2017-Nov-16 21:58N 39°34' E 002°38'0 0.0
2017-Nov-16 21:25N 39°34' E 002°38'0 0.0
2017-Nov-16 20:58N 39°34' E 002°38'0 0.0
2017-Nov-16 20:31N 39°34' E 002°38'0 0.0
2017-Nov-16 20:01N 39°34' E 002°38'0 0.0
2017-Nov-16 19:31N 39°34' E 002°38'0 0.0
2017-Nov-16 19:01N 39°34' E 002°38'0 0.0
2017-Nov-16 18:31N 39°34' E 002°38'0 0.0
2017-Nov-16 18:01N 39°34' E 002°38'0 0.0
2017-Nov-16 17:30N 39°34' E 002°38'0 0.0
2017-Nov-16 17:00N 39°34' E 002°38'0 0.0
2017-Nov-16 16:31N 39°34' E 002°38'0 0.0
2017-Nov-16 16:00N 39°34' E 002°38'0 0.0
2017-Nov-16 15:30N 39°34' E 002°38'0 0.0
2017-Nov-16 15:00N 39°34' E 002°38'0 0.0
2017-Nov-16 14:30N 39°34' E 002°38'0 0.0
2017-Nov-16 14:00N 39°34' E 002°38'0 0.0
2017-Nov-16 13:30N 39°34' E 002°38'0 0.0
2017-Nov-16 13:00N 39°34' E 002°38'0 0.0
2017-Nov-16 12:30N 39°34' E 002°38'0 0.0
2017-Nov-16 12:00N 39°34' E 002°38'0 0.0
2017-Nov-16 11:30N 39°34' E 002°38'0 0.0
2017-Nov-16 11:00N 39°34' E 002°38'0 0.0
2017-Nov-16 10:27N 39°34' E 002°38'0 0.0
2017-Nov-16 10:00N 39°34' E 002°38'0 0.0
2017-Nov-16 09:30N 39°34' E 002°38'0 0.0
2017-Nov-16 09:00N 39°34' E 002°38'0 0.0
2017-Nov-16 08:30N 39°34' E 002°38'0 0.0
2017-Nov-16 08:00N 39°34' E 002°38'0 0.0
2017-Nov-16 07:30N 39°34' E 002°38'0 0.0
2017-Nov-16 07:00N 39°34' E 002°38'0 0.0
2017-Nov-16 06:27N 39°34' E 002°38'0 0.0
2017-Nov-16 06:00N 39°34' E 002°38'0 0.0
2017-Nov-16 05:30N 39°34' E 002°38'0 0.0
2017-Nov-16 05:00N 39°34' E 002°38'0 0.0
2017-Nov-16 04:30N 39°34' E 002°38'0 0.0
2017-Nov-16 04:00N 39°34' E 002°38'0 0.0
2017-Nov-16 03:30N 39°34' E 002°38'0 0.0
2017-Nov-16 03:00N 39°34' E 002°38'0 0.0
2017-Nov-16 02:30N 39°34' E 002°38'0 0.0
2017-Nov-16 02:00N 39°34' E 002°38'0 0.0
2017-Nov-16 01:30N 39°34' E 002°38'0 0.0
2017-Nov-16 01:00N 39°34' E 002°38'0 0.0
2017-Nov-16 00:30N 39°34' E 002°38'0 0.0
2017-Nov-16 00:00N 39°34' E 002°38'0 0.0
2017-Nov-15 23:30N 39°34' E 002°38'0 0.0
2017-Nov-15 23:00N 39°34' E 002°38'0 0.0
2017-Nov-15 22:30N 39°34' E 002°38'0 0.0
2017-Nov-15 22:00N 39°34' E 002°38'0 0.0
2017-Nov-15 21:30N 39°34' E 002°38'0 0.0
2017-Nov-15 21:00N 39°34' E 002°38'0 0.0
2017-Nov-15 20:30N 39°34' E 002°38'0 0.0
2017-Nov-15 20:00N 39°34' E 002°38'0 0.0
2017-Nov-15 19:30N 39°34' E 002°38'0 0.0
2017-Nov-15 19:00N 39°34' E 002°38'0 0.0
2017-Nov-15 18:30N 39°34' E 002°38'0 0.0
2017-Nov-15 18:00N 39°34' E 002°38'0 0.0
2017-Nov-15 17:30N 39°34' E 002°38'0 0.0
2017-Nov-15 17:00N 39°34' E 002°38'0 0.0
2017-Nov-15 16:30N 39°34' E 002°38'0 0.0
2017-Nov-15 16:00N 39°34' E 002°38'0 0.0
2017-Nov-15 15:30N 39°34' E 002°38'0 0.0
2017-Nov-15 15:00N 39°34' E 002°38'0 0.0
2017-Nov-15 14:30N 39°34' E 002°38'0 0.0
2017-Nov-15 14:00N 39°34' E 002°38'0 0.0
2017-Nov-15 13:30N 39°34' E 002°38'0 0.0
2017-Nov-15 13:00N 39°34' E 002°38'0 0.0
2017-Nov-15 12:30N 39°34' E 002°38'0 0.0
2017-Nov-15 12:00N 39°34' E 002°38'0 0.0
2017-Nov-15 11:30N 39°34' E 002°38'0 0.0
2017-Nov-15 11:00N 39°34' E 002°38'0 0.0
2017-Nov-15 10:30N 39°34' E 002°38'0 0.0
2017-Nov-15 10:00N 39°34' E 002°38'0 0.0
2017-Nov-15 09:30N 39°34' E 002°38'0 0.0
2017-Nov-15 09:00N 39°34' E 002°38'0 0.0
2017-Nov-15 08:30N 39°34' E 002°38'0 0.0
2017-Nov-15 08:00N 39°34' E 002°38'0 0.0
2017-Nov-15 07:30N 39°34' E 002°38'0 0.0
2017-Nov-15 07:00N 39°34' E 002°38'0 0.0
2017-Nov-15 06:27N 39°34' E 002°38'0 0.0
2017-Nov-15 05:57N 39°34' E 002°38'0 0.0
2017-Nov-15 05:30N 39°34' E 002°38'0 0.0
2017-Nov-15 05:00N 39°34' E 002°38'0 0.0
2017-Nov-15 04:30N 39°34' E 002°38'0 0.0
2017-Nov-15 04:00N 39°34' E 002°38'0 0.0
2017-Nov-15 03:30N 39°34' E 002°38'0 0.0
2017-Nov-15 03:00N 39°34' E 002°38'0 0.0
2017-Nov-15 02:30N 39°34' E 002°38'0 0.0
2017-Nov-15 02:00N 39°34' E 002°38'0 0.0
2017-Nov-15 01:27N 39°34' E 002°38'0 0.0
2017-Nov-15 01:00N 39°34' E 002°38'0 0.0
2017-Nov-15 00:30N 39°34' E 002°38'0 0.0
2017-Nov-15 00:00N 39°34' E 002°38'0 0.0
2017-Nov-14 23:30N 39°34' E 002°38'0 0.0
2017-Nov-14 23:00N 39°34' E 002°38'0 0.0
2017-Nov-14 22:30N 39°34' E 002°38'0 0.0
2017-Nov-14 22:00N 39°34' E 002°38'0 0.0
2017-Nov-14 21:30N 39°34' E 002°38'0 0.0
2017-Nov-14 21:00N 39°34' E 002°38'0 0.0
2017-Nov-14 20:30N 39°34' E 002°38'0 0.0
2017-Nov-14 20:00N 39°34' E 002°38'0 0.0
2017-Nov-14 19:30N 39°34' E 002°38'0 0.0
2017-Nov-14 19:00N 39°34' E 002°38'0 0.0
2017-Nov-14 18:30N 39°34' E 002°38'0 0.0
2017-Nov-14 18:00N 39°34' E 002°38'  
Track history (hours):
 
Tides and Currents Weather Stations Pressure Air Temp Water Temp Dewpoint Dewpoint Depression Visibility Wind Speed Wind Dir Waves Ship Positions

Pink Gin

Last reported at 2017-Nov-24 17:42 UTC. Time now 2017-Dec-14 06:31 UTC.
Position N 28°25' W 016°13'.
Warning: this ship's position is 19 days out of date.

Length 55 m; draft 7 m.

Type: Pleasure craft. MMSI: 232007762.

Date/timePositionNaut miles runAvg speedWind from/ knotsBaromVisibWave heightAir tempDewpointWater temp
2017-Nov-24 17:42N 28°25' W 016°13'0 1.5
2017-Nov-24 17:30N 28°25' W 016°13'3 5.3
2017-Nov-24 16:56N 28°27' W 016°15'1 1.3
2017-Nov-24 16:25N 28°28' W 016°15'0 0.0
2017-Nov-24 15:57N 28°28' W 016°15'0 0.0
2017-Nov-24 15:27N 28°28' W 016°15'0 0.0
2017-Nov-24 14:57N 28°28' W 016°15'0 0.0
2017-Nov-24 14:24N 28°28' W 016°15'1 0.0
2017-Nov-23 19:18N 28°27' W 016°15'711.4
2017-Nov-23 18:40N 28°30' W 016°07'313.8
2017-Nov-23 18:28N 28°31' W 016°04'613.9
2017-Nov-23 18:00N 28°34' W 015°58'1014.1
2017-Nov-23 17:19N 28°39' W 015°48'414.3
2017-Nov-23 17:00N 28°42' W 015°45'714.2
2017-Nov-23 16:30N 28°47' W 015°38'714.0
2017-Nov-23 16:00N 28°51' W 015°32'713.5
2017-Nov-23 15:30N 28°55' W 015°26'3913.5
2017-Nov-23 12:36N 29°19' W 014°50'113.6
2017-Nov-23 12:30N 29°20' W 014°49'713.8
2017-Nov-23 12:00N 29°24' W 014°43'713.9
2017-Nov-23 11:30N 29°29' W 014°37'714.0
2017-Nov-23 11:01N 29°33' W 014°31'813.7
2017-Nov-23 10:25N 29°38' W 014°23'613.7
2017-Nov-23 09:59N 29°42' W 014°18'713.7
2017-Nov-23 09:28N 29°47' W 014°12'713.7
2017-Nov-23 08:56N 29°51' W 014°05'614.0
2017-Nov-23 08:30N 29°55' W 014°00'713.8
2017-Nov-23 08:01N 29°60' W 013°54'713.6
2017-Nov-23 07:30N 30°04' W 013°48'713.5
2017-Nov-23 06:57N 30°09' W 013°42'613.8
2017-Nov-23 06:30N 30°13' W 013°36'714.1
2017-Nov-23 06:00N 30°17' W 013°30'6612.5
2017-Nov-23 00:41N 30°59' W 012°30'210.7
2017-Nov-23 00:31N 31°01' W 012°29'1310.7
2017-Nov-22 23:15N 31°10' W 012°17'311.2
2017-Nov-22 23:00N 31°12' W 012°15'611.4
2017-Nov-22 22:29N 31°16' W 012°09'  
2017-Nov-20 00:17N 38°55' E 001°27'0 0.0
2017-Nov-19 23:53N 38°55' E 001°27'0 0.0
2017-Nov-19 23:02N 38°55' E 001°27'0 0.0
2017-Nov-19 22:47N 38°55' E 001°27'0 0.0
2017-Nov-19 22:23N 38°55' E 001°27'0 0.0
2017-Nov-19 21:35N 38°55' E 001°27'0 0.0
2017-Nov-19 21:26N 38°55' E 001°27'0 0.0
2017-Nov-19 20:50N 38°55' E 001°27'0 0.0
2017-Nov-19 20:29N 38°55' E 001°27'0 0.0
2017-Nov-19 19:59N 38°55' E 001°27'0 0.0
2017-Nov-19 19:29N 38°55' E 001°27'0 0.0
2017-Nov-19 18:59N 38°55' E 001°27'0 0.0
2017-Nov-19 18:17N 38°55' E 001°27'0 0.0
2017-Nov-19 17:38N 38°55' E 001°27'0 0.0
2017-Nov-19 17:29N 38°55' E 001°27'0 0.0
2017-Nov-19 17:00N 38°55' E 001°27'0 0.0
2017-Nov-19 16:30N 38°55' E 001°27'0 0.0
2017-Nov-19 15:59N 38°55' E 001°27'0 0.0
2017-Nov-19 15:28N 38°55' E 001°27'1 1.8
2017-Nov-19 14:58N 38°54' E 001°27'510.3
2017-Nov-19 14:30N 38°56' E 001°33'713.4
2017-Nov-19 14:00N 38°60' E 001°40'713.3
2017-Nov-19 13:28N 39°04' E 001°47'2913.1
2017-Nov-19 11:15N 39°19' E 002°19'313.8
2017-Nov-19 11:00N 39°21' E 002°23'713.8
2017-Nov-19 10:30N 39°25' E 002°30'713.4
2017-Nov-19 10:00N 39°30' E 002°36'4 8.5
2017-Nov-19 09:30N 39°34' E 002°38'0 0.8
2017-Nov-19 08:58N 39°34' E 002°38'0 0.0
2017-Nov-19 08:28N 39°34' E 002°38'0 0.0
2017-Nov-19 07:58N 39°34' E 002°38'0 0.0
2017-Nov-19 07:28N 39°34' E 002°38'0 0.0
2017-Nov-19 06:58N 39°34' E 002°38'0 0.0
2017-Nov-19 06:28N 39°34' E 002°38'0 0.0
2017-Nov-19 05:58N 39°34' E 002°38'0 0.0
2017-Nov-19 05:28N 39°34' E 002°38'0 0.0
2017-Nov-19 04:58N 39°34' E 002°38'0 0.0
2017-Nov-19 04:28N 39°34' E 002°38'0 0.0
2017-Nov-19 03:58N 39°34' E 002°38'0 0.0
2017-Nov-19 03:28N 39°34' E 002°38'0 0.0
2017-Nov-19 02:58N 39°34' E 002°38'0 0.0
2017-Nov-19 02:28N 39°34' E 002°38'0 0.0
2017-Nov-19 01:58N 39°34' E 002°38'0 0.0
2017-Nov-19 01:28N 39°34' E 002°38'0 0.0
2017-Nov-19 00:58N 39°34' E 002°38'0 0.0
2017-Nov-19 00:28N 39°34' E 002°38'0 0.0
2017-Nov-18 23:58N 39°34' E 002°38'0 0.0
2017-Nov-18 23:28N 39°34' E 002°38'0 0.0
2017-Nov-18 22:58N 39°34' E 002°38'0 0.0
2017-Nov-18 22:28N 39°34' E 002°38'0 0.0
2017-Nov-18 21:58N 39°34' E 002°38'0 0.0
2017-Nov-18 21:28N 39°34' E 002°38'0 0.0
2017-Nov-18 20:58N 39°34' E 002°38'0 0.0
2017-Nov-18 20:28N 39°34' E 002°38'0 0.0
2017-Nov-18 19:58N 39°34' E 002°38'0 0.0
2017-Nov-18 19:25N 39°34' E 002°38'0 0.0
2017-Nov-18 18:58N 39°34' E 002°38'0 0.0
2017-Nov-18 18:28N 39°34' E 002°38'0 0.0
2017-Nov-18 17:58N 39°34' E 002°38'0 0.0
2017-Nov-18 17:28N 39°34' E 002°38'0 0.0
2017-Nov-18 16:58N 39°34' E 002°38'0 0.0
2017-Nov-18 16:28N 39°34' E 002°38'0 0.0
2017-Nov-18 15:58N 39°34' E 002°38'0 0.0
2017-Nov-18 15:25N 39°34' E 002°38'0 0.0
2017-Nov-18 15:00N 39°34' E 002°38'0 0.0
2017-Nov-18 14:30N 39°34' E 002°38'0 0.0
2017-Nov-18 14:00N 39°34' E 002°38'0 0.0
2017-Nov-18 13:30N 39°34' E 002°38'0 0.0
2017-Nov-18 13:00N 39°34' E 002°38'0 0.0
2017-Nov-18 12:30N 39°34' E 002°38'0 0.0
2017-Nov-18 12:00N 39°34' E 002°38'0 0.0
2017-Nov-18 11:30N 39°34' E 002°38'0 0.0
2017-Nov-18 11:00N 39°34' E 002°38'0 0.9
2017-Nov-18 10:30N 39°34' E 002°38'2 4.0
2017-Nov-18 10:00N 39°32' E 002°39'2 4.6
2017-Nov-18 09:30N 39°30' E 002°39'1 2.3
2017-Nov-18 09:00N 39°31' E 002°39'3 5.8
2017-Nov-18 08:28N 39°34' E 002°38'0 0.0
2017-Nov-18 07:55N 39°34' E 002°38'0 0.0
2017-Nov-18 07:28N 39°34' E 002°38'0 0.1
2017-Nov-18 06:58N 39°34' E 002°38'0 0.1
2017-Nov-18 06:28N 39°34' E 002°38'0 0.0
2017-Nov-18 05:58N 39°34' E 002°38'0 0.0
2017-Nov-18 05:28N 39°34' E 002°38'0 0.0
2017-Nov-18 04:58N 39°34' E 002°38'0 0.0
2017-Nov-18 04:28N 39°34' E 002°38'0 0.0
2017-Nov-18 03:58N 39°34' E 002°38'0 0.0
2017-Nov-18 03:28N 39°34' E 002°38'0 0.0
2017-Nov-18 02:58N 39°34' E 002°38'0 0.0
2017-Nov-18 02:28N 39°34' E 002°38'0 0.0
2017-Nov-18 01:58N 39°34' E 002°38'0 0.0
2017-Nov-18 01:28N 39°34' E 002°38'0 0.0
2017-Nov-18 00:58N 39°34' E 002°38'0 0.0
2017-Nov-18 00:28N 39°34' E 002°38'0 0.0
2017-Nov-17 23:58N 39°34' E 002°38'0 0.0
2017-Nov-17 23:28N 39°34' E 002°38'0 0.0
2017-Nov-17 22:58N 39°34' E 002°38'0 0.0
2017-Nov-17 22:28N 39°34' E 002°38'0 0.0
2017-Nov-17 21:58N 39°34' E 002°38'0 0.0
2017-Nov-17 21:28N 39°34' E 002°38'0 0.0
2017-Nov-17 20:58N 39°34' E 002°38'0 0.0
2017-Nov-17 20:28N 39°34' E 002°38'0 0.0
2017-Nov-17 19:58N 39°34' E 002°38'0 0.0
2017-Nov-17 19:28N 39°34' E 002°38'0 0.0
2017-Nov-17 18:58N 39°34' E 002°38'0 0.0
2017-Nov-17 18:28N 39°34' E 002°38'0 0.0
2017-Nov-17 17:58N 39°34' E 002°38'0 0.0
2017-Nov-17 17:28N 39°34' E 002°38'0 0.0
2017-Nov-17 16:58N 39°34' E 002°38'0 0.0
2017-Nov-17 16:28N 39°34' E 002°38'0 0.0
2017-Nov-17 15:58N 39°34' E 002°38'0 0.0
2017-Nov-17 15:28N 39°34' E 002°38'0 0.0
2017-Nov-17 14:55N 39°34' E 002°38'0 0.0
2017-Nov-17 14:28N 39°34' E 002°38'0 0.0
2017-Nov-17 13:58N 39°34' E 002°38'0 0.0
2017-Nov-17 13:28N 39°34' E 002°38'0 0.0
2017-Nov-17 12:58N 39°34' E 002°38'0 0.0
2017-Nov-17 12:28N 39°34' E 002°38'0 0.0
2017-Nov-17 11:58N 39°34' E 002°38'0 0.0
2017-Nov-17 11:28N 39°34' E 002°38'0 0.0
2017-Nov-17 10:58N 39°34' E 002°38'0 0.0
2017-Nov-17 10:28N 39°34' E 002°38'0 0.0
2017-Nov-17 09:58N 39°34' E 002°38'0 0.0
2017-Nov-17 09:28N 39°34' E 002°38'0 0.0
2017-Nov-17 08:58N 39°34' E 002°38'0 0.0
2017-Nov-17 08:28N 39°34' E 002°38'0 0.0
2017-Nov-17 07:58N 39°34' E 002°38'0 0.0
2017-Nov-17 07:28N 39°34' E 002°38'0 0.0
2017-Nov-17 06:58N 39°34' E 002°38'0 0.0
2017-Nov-17 06:28N 39°34' E 002°38'0 0.0
2017-Nov-17 05:58N 39°34' E 002°38'0 0.0
2017-Nov-17 05:25N 39°34' E 002°38'0 0.0
2017-Nov-17 04:58N 39°34' E 002°38'0 0.0
2017-Nov-17 04:28N 39°34' E 002°38'0 0.0
2017-Nov-17 03:58N 39°34' E 002°38'0 0.0
2017-Nov-17 03:28N 39°34' E 002°38'0 0.0
2017-Nov-17 02:58N 39°34' E 002°38'0 0.0
2017-Nov-17 02:28N 39°34' E 002°38'0 0.0
2017-Nov-17 01:58N 39°34' E 002°38'0 0.0
2017-Nov-17 01:28N 39°34' E 002°38'0 0.0
2017-Nov-17 00:58N 39°34' E 002°38'0 0.0
2017-Nov-17 00:28N 39°34' E 002°38'0 0.0
2017-Nov-16 23:58N 39°34' E 002°38'0 0.0
2017-Nov-16 23:28N 39°34' E 002°38'0 0.0
2017-Nov-16 22:58N 39°34' E 002°38'0 0.0
2017-Nov-16 22:28N 39°34' E 002°38'0 0.0
2017-Nov-16 21:58N 39°34' E 002°38'0 0.0
2017-Nov-16 21:25N 39°34' E 002°38'0 0.0
2017-Nov-16 20:58N 39°34' E 002°38'0 0.0
2017-Nov-16 20:31N 39°34' E 002°38'0 0.0
2017-Nov-16 20:01N 39°34' E 002°38'0 0.0
2017-Nov-16 19:31N 39°34' E 002°38'0 0.0
2017-Nov-16 19:01N 39°34' E 002°38'0 0.0
2017-Nov-16 18:31N 39°34' E 002°38'0 0.0
2017-Nov-16 18:01N 39°34' E 002°38'0 0.0
2017-Nov-16 17:30N 39°34' E 002°38'0 0.0
2017-Nov-16 17:00N 39°34' E 002°38'0 0.0
2017-Nov-16 16:31N 39°34' E 002°38'0 0.0
2017-Nov-16 16:00N 39°34' E 002°38'0 0.0
2017-Nov-16 15:30N 39°34' E 002°38'0 0.0
2017-Nov-16 15:00N 39°34' E 002°38'0 0.0
2017-Nov-16 14:30N 39°34' E 002°38'0 0.0
2017-Nov-16 14:00N 39°34' E 002°38'0 0.0
2017-Nov-16 13:30N 39°34' E 002°38'0 0.0
2017-Nov-16 13:00N 39°34' E 002°38'0 0.0
2017-Nov-16 12:30N 39°34' E 002°38'0 0.0
2017-Nov-16 12:00N 39°34' E 002°38'0 0.0
2017-Nov-16 11:30N 39°34' E 002°38'0 0.0
2017-Nov-16 11:00N 39°34' E 002°38'0 0.0
2017-Nov-16 10:27N 39°34' E 002°38'0 0.0
2017-Nov-16 10:00N 39°34' E 002°38'0 0.0
2017-Nov-16 09:30N 39°34' E 002°38'0 0.0
2017-Nov-16 09:00N 39°34' E 002°38'0 0.0
2017-Nov-16 08:30N 39°34' E 002°38'0 0.0
2017-Nov-16 08:00N 39°34' E 002°38'0 0.0
2017-Nov-16 07:30N 39°34' E 002°38'0 0.0
2017-Nov-16 07:00N 39°34' E 002°38'0 0.0
2017-Nov-16 06:27N 39°34' E 002°38'0 0.0
2017-Nov-16 06:00N 39°34' E 002°38'0 0.0
2017-Nov-16 05:30N 39°34' E 002°38'0 0.0
2017-Nov-16 05:00N 39°34' E 002°38'0 0.0
2017-Nov-16 04:30N 39°34' E 002°38'0 0.0
2017-Nov-16 04:00N 39°34' E 002°38'0 0.0
2017-Nov-16 03:30N 39°34' E 002°38'0 0.0
2017-Nov-16 03:00N 39°34' E 002°38'0 0.0
2017-Nov-16 02:30N 39°34' E 002°38'0 0.0
2017-Nov-16 02:00N 39°34' E 002°38'0 0.0
2017-Nov-16 01:30N 39°34' E 002°38'0 0.0
2017-Nov-16 01:00N 39°34' E 002°38'0 0.0
2017-Nov-16 00:30N 39°34' E 002°38'0 0.0
2017-Nov-16 00:00N 39°34' E 002°38'0 0.0
2017-Nov-15 23:30N 39°34' E 002°38'0 0.0
2017-Nov-15 23:00N 39°34' E 002°38'0 0.0
2017-Nov-15 22:30N 39°34' E 002°38'0 0.0
2017-Nov-15 22:00N 39°34' E 002°38'0 0.0
2017-Nov-15 21:30N 39°34' E 002°38'0 0.0
2017-Nov-15 21:00N 39°34' E 002°38'0 0.0
2017-Nov-15 20:30N 39°34' E 002°38'0 0.0
2017-Nov-15 20:00N 39°34' E 002°38'0 0.0
2017-Nov-15 19:30N 39°34' E 002°38'0 0.0
2017-Nov-15 19:00N 39°34' E 002°38'0 0.0
2017-Nov-15 18:30N 39°34' E 002°38'0 0.0
2017-Nov-15 18:00N 39°34' E 002°38'0 0.0
2017-Nov-15 17:30N 39°34' E 002°38'0 0.0
2017-Nov-15 17:00N 39°34' E 002°38'0 0.0
2017-Nov-15 16:30N 39°34' E 002°38'0 0.0
2017-Nov-15 16:00N 39°34' E 002°38'0 0.0
2017-Nov-15 15:30N 39°34' E 002°38'0 0.0
2017-Nov-15 15:00N 39°34' E 002°38'0 0.0
2017-Nov-15 14:30N 39°34' E 002°38'0 0.0
2017-Nov-15 14:00N 39°34' E 002°38'0 0.0
2017-Nov-15 13:30N 39°34' E 002°38'0 0.0
2017-Nov-15 13:00N 39°34' E 002°38'0 0.0
2017-Nov-15 12:30N 39°34' E 002°38'0 0.0
2017-Nov-15 12:00N 39°34' E 002°38'0 0.0
2017-Nov-15 11:30N 39°34' E 002°38'0 0.0
2017-Nov-15 11:00N 39°34' E 002°38'0 0.0
2017-Nov-15 10:30N 39°34' E 002°38'0 0.0
2017-Nov-15 10:00N 39°34' E 002°38'0 0.0
2017-Nov-15 09:30N 39°34' E 002°38'0 0.0
2017-Nov-15 09:00N 39°34' E 002°38'0 0.0
2017-Nov-15 08:30N 39°34' E 002°38'0 0.0
2017-Nov-15 08:00N 39°34' E 002°38'0 0.0
2017-Nov-15 07:30N 39°34' E 002°38'0 0.0
2017-Nov-15 07:00N 39°34' E 002°38'0 0.0
2017-Nov-15 06:27N 39°34' E 002°38'0 0.0
2017-Nov-15 05:57N 39°34' E 002°38'0 0.0
2017-Nov-15 05:30N 39°34' E 002°38'0 0.0
2017-Nov-15 05:00N 39°34' E 002°38'0 0.0
2017-Nov-15 04:30N 39°34' E 002°38'0 0.0
2017-Nov-15 04:00N 39°34' E 002°38'0 0.0
2017-Nov-15 03:30N 39°34' E 002°38'0 0.0
2017-Nov-15 03:00N 39°34' E 002°38'0 0.0
2017-Nov-15 02:30N 39°34' E 002°38'0 0.0
2017-Nov-15 02:00N 39°34' E 002°38'0 0.0
2017-Nov-15 01:27N 39°34' E 002°38'0 0.0
2017-Nov-15 01:00N 39°34' E 002°38'0 0.0
2017-Nov-15 00:30N 39°34' E 002°38'0 0.0
2017-Nov-15 00:00N 39°34' E 002°38'0 0.0
2017-Nov-14 23:30N 39°34' E 002°38'0 0.0
2017-Nov-14 23:00N 39°34' E 002°38'0 0.0
2017-Nov-14 22:30N 39°34' E 002°38'0 0.0
2017-Nov-14 22:00N 39°34' E 002°38'0 0.0
2017-Nov-14 21:30N 39°34' E 002°38'0 0.0
2017-Nov-14 21:00N 39°34' E 002°38'0 0.0
2017-Nov-14 20:30N 39°34' E 002°38'0 0.0
2017-Nov-14 20:00N 39°34' E 002°38'0 0.0
2017-Nov-14 19:30N 39°34' E 002°38'0 0.0
2017-Nov-14 19:00N 39°34' E 002°38'0 0.0
2017-Nov-14 18:30N 39°34' E 002°38'0 0.0
2017-Nov-14 18:00N 39°34' E 002°38'  

Dump ship's entire track history